Time;durP1;ratioP1;P1;durP2;ratioP2;P2;SDS_P1;SDS_P2;PMS_P1;PMS_P2;Temp;Humidity;BMP_temperature;BMP_pressure;BME280_temperature;BME280_humidity;BME280_pressure;Samples;Min_cycle;Max_cycle;Signal;HPM_P1;HPM_P2
2023/11/27 00:02:04;;;;;;;4.10;2.13;;;5.40;93.20;;;;;;5052365;28;20054;-75
2023/11/27 00:04:30;;;;;;;2.85;2.00;;;5.40;93.20;;;;;;5018472;28;20044;-74
2023/11/27 00:06:55;;;;;;;3.72;2.00;;;5.40;93.20;;;;;;5035058;28;20393;-74
2023/11/27 00:09:21;;;;;;;3.25;2.20;;;5.40;93.20;;;;;;5034825;28;20543;-74
2023/11/27 00:11:47;;;;;;;3.00;1.80;;;5.40;93.20;;;;;;5068043;28;20409;-74
2023/11/27 00:14:13;;;;;;;3.78;1.60;;;5.40;93.20;;;;;;5075567;28;20040;-75
2023/11/27 00:16:39;;;;;;;3.78;2.10;;;5.40;93.20;;;;;;5091780;28;20051;-75
2023/11/27 00:19:06;;;;;;;3.28;1.80;;;5.40;93.20;;;;;;5074880;28;20043;-75
2023/11/27 00:21:31;;;;;;;4.93;2.00;;;5.40;93.20;;;;;;5074941;28;20036;-74
2023/11/27 00:23:57;;;;;;;4.50;2.25;;;5.40;93.20;;;;;;5074709;28;20059;-74
2023/11/27 00:26:23;;;;;;;3.33;2.17;;;5.40;93.20;;;;;;5058375;28;20381;-74
2023/11/27 00:28:49;;;;;;;3.47;2.20;;;5.40;93.20;;;;;;5091851;28;20036;-74
2023/11/27 00:31:16;;;;;;;3.80;1.80;;;5.40;93.20;;;;;;5091843;28;20059;-75
2023/11/27 00:33:43;;;;;;;3.13;1.83;;;5.40;93.20;;;;;;5104245;27;20061;-75
2023/11/27 00:36:09;;;;;;;3.22;1.88;;;5.40;93.20;;;;;;5155830;27;20047;-76
2023/11/27 00:38:37;;;;;;;4.15;2.22;;;5.40;93.20;;;;;;5119824;27;20061;-75
2023/11/27 00:41:03;;;;;;;5.30;2.30;;;5.40;93.20;;;;;;5115241;27;20062;-74
2023/11/27 00:43:29;;;;;;;3.63;1.77;;;5.40;93.20;;;;;;5131802;27;20134;-75
2023/11/27 00:45:55;;;;;;;3.47;1.80;;;5.40;93.20;;;;;;5132718;27;20127;-76
2023/11/27 00:48:20;;;;;;;3.47;2.00;;;5.40;93.20;;;;;;5098183;27;20043;-74
2023/11/27 00:50:46;;;;;;;4.65;2.30;;;5.50;93.20;;;;;;5115254;27;20127;-75
2023/11/27 00:53:12;;;;;;;2.53;1.77;;;5.40;93.20;;;;;;5132645;27;20456;-74
2023/11/27 00:55:38;;;;;;;3.78;2.20;;;5.40;93.20;;;;;;5132858;27;20046;-74
2023/11/27 00:58:04;;;;;;;5.25;2.60;;;5.40;93.20;;;;;;5132009;27;20047;-74
2023/11/27 01:00:30;;;;;;;3.70;2.17;;;5.40;93.20;;;;;;5132082;27;20398;-74
2023/11/27 01:02:56;;;;;;;4.57;2.35;;;5.30;93.20;;;;;;5097271;28;20062;-74
2023/11/27 01:05:22;;;;;;;4.00;1.90;;;5.40;93.20;;;;;;5131918;27;20035;-75
2023/11/27 01:07:47;;;;;;;3.10;2.08;;;5.40;93.20;;;;;;5131782;27;20589;-75
2023/11/27 01:10:13;;;;;;;2.63;1.88;;;5.40;93.20;;;;;;5131846;27;20047;-75
2023/11/27 01:12:43;;;;;;;4.53;2.35;;;5.40;93.20;;;;;;5117048;27;20099;-74
2023/11/27 01:15:11;;;;;;;4.82;2.10;;;5.40;93.20;;;;;;5103140;27;20043;-75
2023/11/27 01:17:40;;;;;;;3.85;2.10;;;5.40;93.20;;;;;;5154747;27;20125;-75
2023/11/27 01:20:10;;;;;;;4.30;2.08;;;5.40;93.20;;;;;;5102185;27;20053;-75
2023/11/27 01:22:36;;;;;;;3.05;1.77;;;5.40;93.20;;;;;;5073728;28;20044;-75
2023/11/27 01:25:04;;;;;;;2.67;1.58;;;5.40;93.20;;;;;;5056775;28;20032;-75
2023/11/27 01:27:31;;;;;;;3.22;1.80;;;5.40;93.20;;;;;;5057342;28;20399;-75
2023/11/27 01:29:57;;;;;;;3.60;1.80;;;5.40;93.20;;;;;;5090742;28;20075;-75
2023/11/27 01:32:25;;;;;;;2.95;1.80;;;5.40;93.20;;;;;;5040442;28;20447;-74
2023/11/27 01:34:52;;;;;;;2.53;1.73;;;5.40;93.50;;;;;;5073790;28;20048;-74
2023/11/27 01:37:18;;;;;;;4.15;2.10;;;5.40;93.20;;;;;;5056781;28;20040;-75
2023/11/27 01:39:44;;;;;;;3.05;1.60;;;5.30;93.20;;;;;;5090653;28;20048;-75
2023/11/27 01:42:10;;;;;;;3.08;1.90;;;5.40;93.20;;;;;;5090754;28;20452;-74
2023/11/27 01:44:40;;;;;;;3.45;1.73;;;5.30;93.20;;;;;;5073590;28;20499;-74
2023/11/27 01:47:07;;;;;;;2.63;1.65;;;5.30;93.20;;;;;;5074464;28;20032;-74
2023/11/27 01:49:33;;;;;;;3.47;2.05;;;5.30;93.20;;;;;;5073284;28;20438;-74
2023/11/27 01:52:00;;;;;;;3.72;1.70;;;5.30;93.30;;;;;;5056976;28;20139;-74
2023/11/27 01:54:28;;;;;;;3.22;1.85;;;5.30;93.20;;;;;;5125687;27;20078;-74
2023/11/27 01:56:55;;;;;;;3.53;1.70;;;5.30;93.20;;;;;;5118801;27;20039;-74
2023/11/27 01:59:22;;;;;;;3.72;1.88;;;5.30;93.20;;;;;;5118322;27;20070;-74
2023/11/27 02:01:48;;;;;;;3.05;1.70;;;5.30;93.20;;;;;;5135691;27;20047;-74
2023/11/27 02:04:14;;;;;;;2.78;1.55;;;5.40;93.30;;;;;;5118064;27;20518;-74
2023/11/27 02:06:40;;;;;;;2.58;1.58;;;5.30;93.30;;;;;;5153951;27;20393;-74
2023/11/27 02:09:07;;;;;;;2.83;1.50;;;5.30;93.30;;;;;;5154149;27;20057;-74
2023/11/27 02:11:42;;;;;;;2.63;1.60;;;5.20;93.20;;;;;;5154407;27;20045;-74
2023/11/27 02:14:08;;;;;;;3.13;1.63;;;5.30;93.20;;;;;;5135298;27;20502;-74
2023/11/27 02:16:34;;;;;;;2.92;1.33;;;5.20;93.20;;;;;;5153843;27;20061;-74
2023/11/27 02:18:59;;;;;;;3.30;1.52;;;5.20;93.20;;;;;;5116675;27;20448;-75
2023/11/27 02:21:25;;;;;;;3.63;1.73;;;5.20;93.30;;;;;;5133460;27;20043;-74
2023/11/27 02:23:51;;;;;;;2.60;1.60;;;5.20;93.30;;;;;;5118150;27;20023;-75
2023/11/27 02:26:17;;;;;;;3.20;1.70;;;5.20;93.30;;;;;;5153849;27;20126;-74
2023/11/27 02:28:43;;;;;;;4.55;1.92;;;5.20;93.30;;;;;;5153732;27;20479;-74
2023/11/27 02:31:09;;;;;;;3.10;1.58;;;5.20;93.30;;;;;;5135067;27;20046;-74
2023/11/27 02:33:40;;;;;;;3.30;1.60;;;5.20;93.30;;;;;;5153372;27;20035;-74
2023/11/27 02:36:06;;;;;;;3.47;1.75;;;5.20;93.30;;;;;;5134538;27;20125;-74
2023/11/27 02:38:32;;;;;;;2.90;1.67;;;5.20;93.30;;;;;;5134990;27;20063;-74
2023/11/27 02:40:59;;;;;;;3.42;1.80;;;5.20;93.30;;;;;;5153890;27;20039;-74
2023/11/27 02:43:25;;;;;;;5.38;1.85;;;5.20;93.30;;;;;;5118681;27;20031;-74
2023/11/27 02:45:51;;;;;;;4.45;1.80;;;5.10;93.20;;;;;;5134864;27;20033;-74
2023/11/27 02:48:17;;;;;;;2.03;1.48;;;5.20;93.30;;;;;;5117763;27;20398;-74
2023/11/27 02:50:43;;;;;;;3.30;1.85;;;5.10;93.20;;;;;;5132825;27;20043;-74
2023/11/27 02:53:09;;;;;;;4.50;1.95;;;5.10;93.20;;;;;;5134359;27;20042;-75
2023/11/27 02:55:34;;;;;;;4.82;1.88;;;5.20;93.30;;;;;;5117589;27;20046;-75
2023/11/27 02:58:00;;;;;;;4.75;1.70;;;5.20;93.30;;;;;;5134679;27;20074;-74
2023/11/27 03:00:26;;;;;;;3.63;2.03;;;5.10;93.30;;;;;;5134694;27;20070;-74
2023/11/27 03:02:52;;;;;;;4.20;1.73;;;5.10;93.20;;;;;;5153748;27;20553;-74
2023/11/27 03:05:18;;;;;;;3.38;1.80;;;5.10;93.20;;;;;;5153686;27;20041;-74
2023/11/27 03:07:44;;;;;;;2.70;1.73;;;5.10;93.20;;;;;;5138048;27;20121;-74
2023/11/27 03:10:13;;;;;;;4.18;2.20;;;5.10;93.20;;;;;;5157044;27;20034;-74
2023/11/27 03:12:39;;;;;;;3.40;2.00;;;5.10;93.20;;;;;;5138327;27;20042;-73
2023/11/27 03:15:05;;;;;;;4.35;2.10;;;5.10;93.20;;;;;;5136629;27;20506;-73
2023/11/27 03:17:31;;;;;;;3.83;1.80;;;5.10;93.20;;;;;;5136476;27;20119;-74
2023/11/27 03:19:57;;;;;;;4.18;2.22;;;5.10;93.20;;;;;;5120744;27;20551;-75
2023/11/27 03:22:23;;;;;;;3.08;1.85;;;5.10;93.20;;;;;;5121222;27;20425;-73
2023/11/27 03:24:49;;;;;;;3.28;1.88;;;5.20;93.30;;;;;;5120930;27;20035;-74
2023/11/27 03:27:15;;;;;;;4.63;2.10;;;5.10;93.20;;;;;;5137769;27;20038;-74
2023/11/27 03:29:41;;;;;;;3.83;2.10;;;5.10;93.20;;;;;;5156268;27;20039;-73
2023/11/27 03:32:10;;;;;;;3.67;2.10;;;5.00;93.20;;;;;;5138400;27;20050;-73
2023/11/27 03:34:36;;;;;;;4.78;2.33;;;5.00;93.20;;;;;;5075961;28;20044;-74
2023/11/27 03:37:02;;;;;;;5.20;2.50;;;5.00;93.50;;;;;;5075419;28;20040;-74
2023/11/27 03:39:28;;;;;;;3.15;1.80;;;5.00;93.20;;;;;;5092496;28;20082;-74
2023/11/27 03:41:54;;;;;;;3.33;2.17;;;5.00;93.20;;;;;;5092273;28;20515;-74
2023/11/27 03:44:21;;;;;;;4.55;2.17;;;5.00;93.20;;;;;;5092134;28;20071;-74
2023/11/27 03:46:46;;;;;;;4.57;2.30;;;5.00;93.20;;;;;;5075437;28;20051;-73
2023/11/27 03:49:12;;;;;;;4.72;2.15;;;5.00;93.20;;;;;;5058529;28;20047;-74
2023/11/27 03:51:40;;;;;;;2.83;1.73;;;5.10;93.20;;;;;;5092522;28;20048;-74
2023/11/27 03:54:07;;;;;;;3.70;1.73;;;5.00;93.20;;;;;;5075619;28;20056;-74
2023/11/27 03:56:32;;;;;;;2.65;1.23;;;5.00;93.20;;;;;;5031624;28;20046;-74
2023/11/27 03:58:58;;;;;;;2.92;1.60;;;5.00;93.20;;;;;;5031712;28;20042;-74
2023/11/27 04:01:24;;;;;;;3.83;1.50;;;5.10;93.30;;;;;;5031966;28;20038;-74
2023/11/27 04:03:49;;;;;;;1.88;1.33;;;5.10;93.20;;;;;;5031867;28;20045;-74
2023/11/27 04:06:24;;;;;;;3.85;1.80;;;5.00;93.20;;;;;;5079120;28;20044;-74
2023/11/27 04:08:51;;;;;;;3.75;1.50;;;5.00;93.20;;;;;;5074906;28;20079;-74
2023/11/27 04:11:17;;;;;;;3.20;1.70;;;5.00;93.20;;;;;;5055629;28;20572;-73
2023/11/27 04:13:44;;;;;;;2.72;1.48;;;5.00;93.20;;;;;;5073967;28;20179;-74
2023/11/27 04:16:10;;;;;;;2.53;1.45;;;5.00;93.30;;;;;;5090190;28;20032;-74
2023/11/27 04:18:36;;;;;;;3.10;1.90;;;5.00;93.20;;;;;;5074580;28;20418;-74
2023/11/27 04:21:02;;;;;;;2.08;1.30;;;5.00;93.20;;;;;;5074864;28;20134;-74
2023/11/27 04:23:28;;;;;;;3.03;1.45;;;5.00;93.20;;;;;;5075061;28;20035;-74
2023/11/27 04:25:54;;;;;;;2.53;1.58;;;5.00;93.20;;;;;;5073251;28;20048;-74
2023/11/27 04:28:20;;;;;;;3.75;1.95;;;5.00;93.20;;;;;;5126235;27;20051;-74
2023/11/27 04:30:46;;;;;;;2.80;1.80;;;5.00;93.20;;;;;;5102700;27;20125;-74
2023/11/27 04:33:14;;;;;;;2.65;1.67;;;5.00;93.20;;;;;;5119972;27;20046;-73
2023/11/27 04:35:41;;;;;;;3.15;1.88;;;5.00;93.30;;;;;;5155436;27;20043;-74
2023/11/27 04:38:08;;;;;;;2.13;1.60;;;5.00;93.20;;;;;;5137020;27;20125;-73
2023/11/27 04:40:34;;;;;;;2.25;1.20;;;5.00;93.20;;;;;;5135817;27;20134;-73
2023/11/27 04:43:00;;;;;;;4.80;2.08;;;5.00;93.30;;;;;;5155053;27;20026;-74
2023/11/27 04:45:26;;;;;;;2.75;1.58;;;5.00;93.20;;;;;;5134817;27;20039;-74
2023/11/27 04:47:52;;;;;;;3.92;1.55;;;5.00;93.30;;;;;;5119261;27;20424;-73
2023/11/27 04:50:19;;;;;;;2.28;1.50;;;5.00;93.30;;;;;;5155143;27;20043;-73
2023/11/27 04:52:44;;;;;;;1.98;1.10;;;5.00;93.30;;;;;;5136473;27;20042;-74
2023/11/27 04:55:10;;;;;;;2.05;1.30;;;5.00;93.30;;;;;;5155014;27;20066;-74
2023/11/27 04:57:37;;;;;;;1.70;1.17;;;5.00;93.30;;;;;;5136472;27;20053;-74
2023/11/27 05:00:03;;;;;;;4.38;1.48;;;4.90;93.30;;;;;;5094285;28;20096;-75
2023/11/27 05:02:29;;;;;;;3.25;1.38;;;4.90;93.30;;;;;;5111597;28;20047;-74
2023/11/27 05:04:55;;;;;;;1.95;1.40;;;5.00;93.30;;;;;;5077438;28;20044;-73
2023/11/27 05:07:21;;;;;;;1.50;1.10;;;5.00;93.30;;;;;;5112207;28;20066;-74
2023/11/27 05:09:47;;;;;;;1.13;0.93;;;4.90;93.30;;;;;;5077756;28;20126;-73
2023/11/27 05:12:14;;;;;;;1.30;0.98;;;4.90;93.30;;;;;;5112030;28;20590;-73
2023/11/27 05:14:41;;;;;;;2.72;1.50;;;4.90;93.30;;;;;;5111688;28;20130;-74
2023/11/27 05:17:10;;;;;;;2.22;1.05;;;4.90;93.30;;;;;;5094155;28;20047;-73
2023/11/27 05:19:36;;;;;;;2.03;1.33;;;4.90;93.30;;;;;;5033404;28;20475;-73
2023/11/27 05:22:03;;;;;;;2.35;1.35;;;4.90;93.40;;;;;;5050638;28;20127;-73
2023/11/27 05:24:28;;;;;;;2.35;1.30;;;4.90;93.30;;;;;;5017414;28;20037;-73
2023/11/27 05:26:54;;;;;;;1.15;1.00;;;4.90;93.30;;;;;;5034146;28;20195;-75
2023/11/27 05:29:20;;;;;;;2.28;1.10;;;4.90;93.40;;;;;;5050142;28;20599;-73
2023/11/27 05:31:46;;;;;;;1.98;1.05;;;4.90;93.40;;;;;;5083037;28;20039;-73
2023/11/27 05:34:12;;;;;;;1.77;1.00;;;4.90;93.40;;;;;;5090640;28;20048;-74
2023/11/27 05:36:41;;;;;;;2.95;1.27;;;4.90;93.40;;;;;;5090750;28;20059;-73
2023/11/27 05:39:09;;;;;;;1.85;1.00;;;4.80;93.40;;;;;;5072689;28;20052;-73
2023/11/27 05:41:37;;;;;;;1.88;1.05;;;4.80;93.40;;;;;;5089269;28;20036;-74
2023/11/27 05:44:04;;;;;;;1.10;0.90;;;4.90;93.40;;;;;;5073064;28;20127;-74
2023/11/27 05:46:30;;;;;;;1.40;1.00;;;4.80;93.40;;;;;;5073809;28;20123;-74
2023/11/27 05:48:56;;;;;;;2.00;1.40;;;4.90;93.40;;;;;;5090603;28;20040;-74
2023/11/27 05:51:22;;;;;;;1.33;0.90;;;4.80;93.40;;;;;;5124803;27;20039;-75
2023/11/27 05:53:48;;;;;;;1.58;1.27;;;4.80;93.60;;;;;;5154673;27;20039;-74
2023/11/27 05:56:14;;;;;;;1.45;1.00;;;4.80;93.70;;;;;;5118468;27;20613;-75
2023/11/27 05:58:39;;;;;;;1.27;1.00;;;4.80;93.40;;;;;;5117358;27;20039;-74
2023/11/27 06:01:06;;;;;;;0.73;0.70;;;4.80;93.40;;;;;;5154545;27;20450;-74
2023/11/27 06:03:34;;;;;;;1.45;0.90;;;4.80;93.40;;;;;;5116761;27;20096;-74
2023/11/27 06:06:00;;;;;;;1.23;0.70;;;4.90;93.40;;;;;;5136424;27;20063;-74
2023/11/27 06:08:26;;;;;;;0.85;0.70;;;4.90;93.40;;;;;;5153731;27;20125;-74
2023/11/27 06:10:52;;;;;;;0.73;0.55;;;4.80;93.40;;;;;;5153939;27;20561;-74
2023/11/27 06:13:17;;;;;;;1.10;0.70;;;4.90;93.50;;;;;;5118285;27;20050;-75
2023/11/27 06:15:46;;;;;;;0.88;0.80;;;4.90;93.50;;;;;;5118243;27;20046;-74
2023/11/27 06:18:14;;;;;;;1.05;0.77;;;4.90;93.50;;;;;;5135711;27;20447;-74
2023/11/27 06:20:40;;;;;;;0.90;0.73;;;4.80;93.40;;;;;;5101632;27;20467;-73
2023/11/27 06:23:06;;;;;;;1.33;0.80;;;4.80;93.40;;;;;;5154224;27;20113;-73
2023/11/27 06:25:35;;;;;;;1.08;0.70;;;4.90;93.50;;;;;;5153736;27;20054;-74
2023/11/27 06:28:01;;;;;;;1.60;0.80;;;4.90;93.40;;;;;;5134846;27;20137;-74
2023/11/27 06:30:28;;;;;;;0.70;0.52;;;4.90;93.50;;;;;;5135206;27;20079;-73
2023/11/27 06:32:53;;;;;;;0.82;0.63;;;4.80;93.40;;;;;;5135349;27;20095;-73
2023/11/27 06:35:19;;;;;;;0.90;0.60;;;4.90;93.50;;;;;;5154106;27;20416;-75
2023/11/27 06:37:45;;;;;;;0.70;0.70;;;4.80;93.50;;;;;;5117972;27;20478;-72
2023/11/27 06:40:11;;;;;;;1.42;0.90;;;4.90;93.50;;;;;;5153752;27;20055;-76
2023/11/27 06:42:40;;;;;;;0.50;0.50;;;4.90;93.50;;;;;;5157083;27;20035;-73
2023/11/27 06:45:06;;;;;;;0.50;0.50;;;4.90;93.50;;;;;;5157800;27;20091;-73
2023/11/27 06:47:32;;;;;;;0.43;0.43;;;4.90;93.50;;;;;;5121517;27;20371;-73
2023/11/27 06:49:59;;;;;;;0.90;0.60;;;4.80;93.50;;;;;;5137410;27;20075;-73
2023/11/27 06:52:25;;;;;;;1.45;0.85;;;4.80;93.40;;;;;;5157372;27;20502;-75
2023/11/27 06:54:51;;;;;;;1.10;0.70;;;4.80;93.50;;;;;;5138566;27;20398;-73
2023/11/27 06:57:17;;;;;;;0.73;0.60;;;4.80;93.50;;;;;;5121540;27;20039;-73
2023/11/27 06:59:42;;;;;;;0.60;0.60;;;4.80;93.50;;;;;;5141523;27;20046;-73
2023/11/27 07:02:11;;;;;;;0.90;0.77;;;4.80;93.50;;;;;;5157574;27;20519;-74
2023/11/27 07:04:39;;;;;;;0.93;0.50;;;4.80;93.50;;;;;;5099770;28;20041;-73
2023/11/27 07:07:05;;;;;;;0.70;0.70;;;4.80;93.50;;;;;;5097447;28;21988;-74
2023/11/27 07:09:31;;;;;;;0.90;0.60;;;4.70;93.50;;;;;;5096688;28;20040;-74
2023/11/27 07:11:58;;;;;;;0.70;0.63;;;4.70;93.50;;;;;;5097067;28;20047;-74
2023/11/27 07:14:26;;;;;;;1.17;0.40;;;4.70;93.50;;;;;;5097629;28;20055;-74
2023/11/27 07:16:51;;;;;;;0.40;0.40;;;4.70;93.50;;;;;;5115073;28;20559;-74
2023/11/27 07:19:17;;;;;;;0.50;0.50;;;4.80;93.50;;;;;;5097154;28;20138;-74
2023/11/27 07:21:43;;;;;;;1.48;0.85;;;4.70;93.50;;;;;;5098139;28;20499;-75
2023/11/27 07:24:09;;;;;;;1.00;0.60;;;4.80;93.50;;;;;;5097214;28;20595;-74
2023/11/27 07:26:35;;;;;;;0.40;0.40;;;4.70;93.50;;;;;;5115219;28;20042;-74
2023/11/27 07:29:01;;;;;;;0.30;0.30;;;4.70;93.60;;;;;;5080780;28;20135;-74
2023/11/27 07:31:27;;;;;;;0.50;0.50;;;4.70;93.50;;;;;;5097779;28;20067;-74
2023/11/27 07:33:54;;;;;;;0.60;0.60;;;4.70;93.50;;;;;;5098423;28;20610;-75
2023/11/27 07:36:20;;;;;;;0.57;0.50;;;4.70;93.50;;;;;;5098534;27;20402;-75
2023/11/27 07:38:48;;;;;;;0.40;0.40;;;4.70;93.50;;;;;;5160385;27;20036;-75
2023/11/27 07:41:14;;;;;;;0.98;0.70;;;4.70;93.50;;;;;;5125221;27;20038;-75
2023/11/27 07:43:40;;;;;;;0.50;0.50;;;4.70;93.50;;;;;;5159869;27;20110;-75
2023/11/27 07:46:10;;;;;;;1.13;0.73;;;4.70;93.50;;;;;;5123556;27;20074;-74
2023/11/27 07:48:39;;;;;;;0.50;0.50;;;4.70;93.50;;;;;;5140866;27;20525;-75
2023/11/27 07:51:06;;;;;;;1.33;0.70;;;4.70;93.60;;;;;;5105532;27;20043;-75
2023/11/27 07:53:32;;;;;;;0.60;0.60;;;4.70;93.60;;;;;;5140197;27;20039;-74
2023/11/27 07:55:59;;;;;;;0.47;0.40;;;4.70;93.60;;;;;;5123750;27;20042;-75
2023/11/27 07:58:25;;;;;;;0.70;0.50;;;4.70;93.50;;;;;;5122879;27;20030;-75
2023/11/27 08:00:51;;;;;;;0.65;0.40;;;4.70;93.50;;;;;;5139087;27;20043;-74
2023/11/27 08:03:16;;;;;;;0.40;0.40;;;4.70;93.60;;;;;;5159006;27;20374;-75
2023/11/27 08:05:43;;;;;;;0.20;0.20;;;4.70;93.60;;;;;;5140315;27;20041;-75
2023/11/27 08:08:10;;;;;;;0.52;0.30;;;4.70;93.60;;;;;;5123469;27;20037;-75
2023/11/27 08:10:40;;;;;;;0.22;0.22;;;4.80;93.60;;;;;;5157834;27;20056;-75
2023/11/27 08:13:06;;;;;;;0.45;0.30;;;4.80;93.60;;;;;;5121166;27;20043;-74
2023/11/27 08:15:31;;;;;;;0.40;0.35;;;4.80;93.60;;;;;;5137348;27;20107;-73
2023/11/27 08:18:00;;;;;;;0.30;0.30;;;4.80;93.60;;;;;;5155761;27;20034;-73
2023/11/27 08:20:29;;;;;;;0.20;0.20;;;4.80;93.60;;;;;;5126690;27;20067;-75
2023/11/27 08:22:57;;;;;;;0.65;0.40;;;4.80;93.50;;;;;;5170275;27;20039;-75
2023/11/27 08:25:24;;;;;;;0.50;0.40;;;4.80;93.50;;;;;;5149629;27;20069;-75
2023/11/27 08:27:52;;;;;;;0.40;0.32;;;4.90;93.60;;;;;;5129194;27;20076;-75
2023/11/27 08:30:18;;;;;;;0.40;0.30;;;4.80;93.50;;;;;;5153558;27;20398;-75
2023/11/27 08:32:46;;;;;;;0.43;0.20;;;4.80;93.50;;;;;;5154028;27;20070;-76
2023/11/27 08:35:11;;;;;;;0.95;0.40;;;4.80;93.50;;;;;;5151512;27;20447;-75
2023/11/27 08:37:40;;;;;;;1.85;0.47;;;4.80;93.50;;;;;;5152700;27;20042;-75
2023/11/27 08:40:12;;;;;;;0.20;0.20;;;4.90;93.60;;;;;;5146944;27;20130;-75
2023/11/27 08:42:41;;;;;;;0.40;0.38;;;4.80;93.50;;;;;;5148093;27;20060;-75
2023/11/27 08:45:16;;;;;;;0.60;0.47;;;4.90;93.50;;;;;;5167061;27;20041;-74
2023/11/27 08:47:50;;;;;;;0.57;0.50;;;4.90;93.50;;;;;;5149748;27;20038;-76
2023/11/27 08:50:17;;;;;;;0.50;0.40;;;4.90;93.50;;;;;;5147546;27;20111;-75
2023/11/27 08:52:44;;;;;;;0.30;0.30;;;4.90;93.50;;;;;;5168527;27;20054;-76
2023/11/27 08:55:10;;;;;;;0.50;0.50;;;4.90;93.50;;;;;;5171314;27;20590;-75
2023/11/27 08:57:36;;;;;;;0.50;0.40;;;4.90;93.50;;;;;;5170710;27;20049;-75
2023/11/27 09:00:05;;;;;;;0.40;0.40;;;4.90;93.50;;;;;;5150966;27;20055;-75
2023/11/27 09:02:31;;;;;;;0.85;0.57;;;4.90;93.50;;;;;;5128283;27;20073;-75
2023/11/27 09:04:58;;;;;;;0.73;0.45;;;5.00;93.50;;;;;;5146332;27;20099;-75
2023/11/27 09:07:23;;;;;;;0.52;0.52;;;5.00;93.50;;;;;;5132952;27;20497;-75
2023/11/27 09:09:49;;;;;;;0.95;0.47;;;4.90;93.50;;;;;;5169765;27;20046;-75
2023/11/27 09:12:15;;;;;;;0.30;0.30;;;5.00;93.50;;;;;;5170445;27;20070;-75
2023/11/27 09:14:42;;;;;;;0.65;0.47;;;5.10;93.60;;;;;;5133543;27;20073;-75
2023/11/27 09:17:08;;;;;;;0.50;0.40;;;5.00;93.50;;;;;;5135485;27;20058;-75
2023/11/27 09:19:34;;;;;;;0.35;0.20;;;5.00;93.50;;;;;;5170151;27;20046;-76
2023/11/27 09:22:00;;;;;;;0.40;0.40;;;5.00;93.50;;;;;;5169186;27;20043;-76
2023/11/27 09:24:26;;;;;;;0.35;0.35;;;5.00;93.50;;;;;;5131284;27;20041;-75
2023/11/27 09:26:52;;;;;;;0.60;0.30;;;5.00;93.50;;;;;;5163119;27;20089;-75
2023/11/27 09:29:18;;;;;;;0.40;0.40;;;5.00;93.50;;;;;;5157218;27;20035;-75
2023/11/27 09:31:44;;;;;;;0.75;0.40;;;5.00;93.50;;;;;;5138019;27;20034;-75
2023/11/27 09:34:10;;;;;;;0.30;0.30;;;5.20;93.60;;;;;;5141827;27;20046;-75
2023/11/27 09:36:36;;;;;;;1.55;0.50;;;5.00;93.50;;;;;;5165078;27;20047;-75
2023/11/27 09:39:02;;;;;;;0.35;0.25;;;5.00;93.50;;;;;;5130757;27;20042;-75
2023/11/27 09:41:30;;;;;;;0.30;0.30;;;5.00;93.50;;;;;;5167020;27;20443;-75
2023/11/27 09:43:57;;;;;;;0.32;0.32;;;5.10;93.50;;;;;;5164117;27;20062;-75
2023/11/27 09:46:24;;;;;;;0.40;0.40;;;5.10;93.50;;;;;;5145051;27;20035;-75
2023/11/27 09:48:55;;;;;;;0.65;0.45;;;5.10;93.50;;;;;;5143235;27;20478;-75
2023/11/27 09:51:22;;;;;;;0.35;0.30;;;5.10;93.50;;;;;;5129782;27;20039;-75
2023/11/27 09:53:50;;;;;;;0.40;0.40;;;5.00;93.40;;;;;;5163927;27;20043;-75
2023/11/27 09:56:17;;;;;;;0.20;0.20;;;5.10;93.40;;;;;;5140203;27;20123;-74
2023/11/27 09:58:44;;;;;;;0.30;0.30;;;5.20;93.50;;;;;;5144507;27;20026;-75
2023/11/27 10:01:12;;;;;;;0.82;0.60;;;5.20;93.50;;;;;;5161872;27;20481;-75
2023/11/27 10:03:42;;;;;;;0.20;0.20;;;5.20;93.50;;;;;;5144209;27;20049;-75
2023/11/27 10:06:11;;;;;;;0.50;0.30;;;5.20;93.50;;;;;;5162122;27;20038;-75
2023/11/27 10:08:37;;;;;;;0.50;0.50;;;5.20;93.50;;;;;;5143466;27;20047;-75
2023/11/27 10:11:03;;;;;;;0.32;0.30;;;5.20;93.50;;;;;;5124147;27;20038;-74
2023/11/27 10:13:35;;;;;;;0.30;0.30;;;5.20;93.50;;;;;;5157761;27;20043;-75
2023/11/27 10:16:05;;;;;;;0.40;0.30;;;5.20;93.50;;;;;;5163956;27;20046;-75
2023/11/27 10:18:32;;;;;;;0.28;0.28;;;5.30;93.50;;;;;;5143219;27;20043;-74
2023/11/27 10:20:58;;;;;;;0.47;0.40;;;5.20;93.50;;;;;;5160233;27;20080;-75
2023/11/27 10:23:27;;;;;;;0.30;0.30;;;5.30;93.50;;;;;;5159964;27;20059;-74
2023/11/27 10:25:56;;;;;;;0.43;0.43;;;5.30;93.50;;;;;;5147458;27;20043;-75
2023/11/27 10:28:22;;;;;;;0.30;0.30;;;5.30;93.50;;;;;;5146318;27;20042;-74
2023/11/27 10:30:49;;;;;;;0.25;0.25;;;5.30;93.50;;;;;;5144962;27;20036;-75
2023/11/27 10:33:15;;;;;;;0.40;0.40;;;5.30;93.50;;;;;;5145777;27;20052;-74
2023/11/27 10:35:41;;;;;;;0.20;0.20;;;5.30;93.40;;;;;;5161608;27;20039;-75
2023/11/27 10:38:17;;;;;;;0.40;0.40;;;5.40;93.40;;;;;;5128667;27;20042;-75
2023/11/27 10:40:43;;;;;;;0.10;0.10;;;5.40;93.40;;;;;;5162728;27;20082;-75
2023/11/27 10:43:11;;;;;;;0.80;0.40;;;5.40;93.40;;;;;;5163450;27;20566;-75
2023/11/27 10:45:38;;;;;;;0.20;0.20;;;5.50;93.40;;;;;;5141906;27;20375;-74
2023/11/27 10:48:06;;;;;;;0.30;0.30;;;5.50;93.40;;;;;;5090600;28;20115;-74
2023/11/27 10:50:33;;;;;;;0.30;0.30;;;5.50;93.40;;;;;;5057075;28;20599;-73
2023/11/27 10:53:00;;;;;;;0.20;0.20;;;5.50;93.40;;;;;;5090557;28;20094;-73
2023/11/27 10:55:28;;;;;;;0.30;0.30;;;5.50;93.40;;;;;;5074107;28;20044;-73
2023/11/27 10:57:56;;;;;;;0.32;0.32;;;5.50;93.40;;;;;;5057150;28;20134;-73
2023/11/27 11:00:29;;;;;;;0.55;0.40;;;5.50;93.40;;;;;;5091221;28;20078;-73
2023/11/27 11:03:01;;;;;;;0.25;0.25;;;5.60;93.40;;;;;;5076062;28;20044;-73
2023/11/27 11:05:35;;;;;;;0.20;0.20;;;5.60;93.40;;;;;;5057111;28;20075;-72
2023/11/27 11:08:03;;;;;;;0.30;0.30;;;5.60;93.40;;;;;;5090684;28;20219;-73
2023/11/27 11:10:31;;;;;;;0.20;0.20;;;5.60;93.40;;;;;;5073824;28;20415;-73
2023/11/27 11:13:00;;;;;;;0.30;0.30;;;5.60;93.40;;;;;;5091928;28;20059;-74
2023/11/27 11:15:38;;;;;;;0.30;0.30;;;5.60;93.40;;;;;;5092141;28;20044;-73
2023/11/27 11:18:11;;;;;;;0.20;0.20;;;5.60;93.40;;;;;;5078123;27;20149;-73
2023/11/27 11:21:05;;;;;;;0.30;0.30;;;5.60;93.40;;;;;;5149510;27;20054;-73
2023/11/27 11:23:45;;;;;;;0.45;0.32;;;5.70;93.40;;;;;;5121616;27;20146;-73
2023/11/27 11:26:32;;;;;;;0.47;0.45;;;5.70;93.40;;;;;;5121573;27;20037;-74
2023/11/27 11:29:11;;;;;;;0.30;0.30;;;5.70;93.40;;;;;;5157584;27;20078;-73
2023/11/27 11:31:43;;;;;;;0.30;0.30;;;5.70;93.40;;;;;;5160576;27;20031;-74
2023/11/27 11:34:18;;;;;;;0.28;0.28;;;5.80;93.40;;;;;;5142883;27;20041;-74
2023/11/27 11:36:45;;;;;;;0.30;0.30;;;5.70;93.40;;;;;;5143996;27;20115;-74
2023/11/27 11:39:18;;;;;;;0.38;0.38;;;5.80;93.40;;;;;;5142924;27;20047;-73
2023/11/27 11:41:45;;;;;;;0.40;0.40;;;5.80;93.40;;;;;;5125997;27;20122;-73
2023/11/27 11:44:18;;;;;;;0.32;0.32;;;5.70;93.30;;;;;;5160782;27;20034;-74
2023/11/27 11:46:45;;;;;;;0.63;0.32;;;5.80;93.40;;;;;;5141547;27;20039;-73
2023/11/27 11:49:15;;;;;;;0.30;0.30;;;5.80;93.40;;;;;;5142145;27;20065;-73
2023/11/27 11:52:08;;;;;;;0.20;0.20;;;5.70;93.40;;;;;;5136649;27;20039;-73
2023/11/27 11:54:40;;;;;;;0.30;0.30;;;5.80;93.40;;;;;;5113281;28;20035;-73
2023/11/27 11:57:21;;;;;;;0.20;0.20;;;5.80;93.40;;;;;;5081403;28;20438;-73
2023/11/27 11:59:49;;;;;;;;;;;5.90;93.40;;;;;;5099336;28;20043;-74
2023/11/27 12:02:19;;;;;;;0.20;0.20;;;5.90;93.40;;;;;;5115935;28;20326;-74
2023/11/27 12:04:45;;;;;;;0.22;0.20;;;5.90;93.30;;;;;;5115901;28;20044;-74
2023/11/27 12:07:13;;;;;;;0.30;0.30;;;5.90;93.30;;;;;;5081991;28;20158;-74
2023/11/27 12:09:41;;;;;;;0.13;0.13;;;5.90;93.30;;;;;;5100292;28;20043;-73
2023/11/27 12:12:10;;;;;;;0.32;0.32;;;5.90;93.30;;;;;;5099620;28;20043;-73
2023/11/27 12:14:38;;;;;;;0.57;0.30;;;5.90;93.30;;;;;;5098524;28;20043;-73
2023/11/27 12:17:07;;;;;;;0.20;0.20;;;5.90;93.30;;;;;;5095502;28;20089;-72
2023/11/27 12:19:34;;;;;;;0.20;0.20;;;5.90;93.30;;;;;;5112454;28;20048;-73
2023/11/27 12:21:59;;;;;;;0.30;0.30;;;5.90;93.40;;;;;;5095265;28;20454;-71
2023/11/27 12:24:25;;;;;;;0.30;0.30;;;5.90;93.40;;;;;;5112399;28;20032;-72
2023/11/27 12:26:52;;;;;;;0.40;0.40;;;5.90;93.40;;;;;;5135169;27;20043;-72
2023/11/27 12:29:20;;;;;;;0.20;0.20;;;6.00;93.40;;;;;;5137360;27;20117;-72
2023/11/27 12:31:46;;;;;;;0.30;0.30;;;5.90;93.40;;;;;;5156153;27;20086;-72
2023/11/27 12:34:16;;;;;;;0.35;0.35;;;5.90;93.40;;;;;;5137422;27;20043;-72
2023/11/27 12:36:44;;;;;;;0.40;0.40;;;6.00;93.40;;;;;;5137395;27;20039;-72
2023/11/27 12:39:15;;;;;;;0.40;0.40;;;6.00;93.40;;;;;;5155650;27;20065;-74
2023/11/27 12:41:43;;;;;;;0.28;0.28;;;6.00;93.40;;;;;;5121068;27;20073;-72
2023/11/27 12:44:13;;;;;;;0.40;0.30;;;6.00;93.40;;;;;;5155187;27;20042;-72
2023/11/27 12:46:47;;;;;;;0.57;0.32;;;6.00;93.40;;;;;;5136108;27;20043;-72
2023/11/27 12:49:17;;;;;;;0.47;0.47;;;6.00;93.40;;;;;;5138143;27;20039;-72
2023/11/27 12:51:45;;;;;;;0.55;0.32;;;6.00;93.40;;;;;;5137102;27;20042;-72
2023/11/27 12:54:18;;;;;;;0.40;0.30;;;6.10;93.40;;;;;;5136796;27;20110;-72
2023/11/27 12:57:01;;;;;;;0.20;0.20;;;6.00;93.40;;;;;;5136564;27;20035;-73
2023/11/27 12:59:27;;;;;;;0.30;0.30;;;6.10;93.40;;;;;;5137307;27;20123;-73